Terminal Aerodrome Forecast
Issued by NWS

Home | Current Version | Previous Version | Text Only | Print | Product List | Glossary On
Versions: 1 2 3 4 5 6 7 8 9 10 11 12 13 14 15 16 17 18 19 20
000
FTUS41 KBOX 231122
TAFBED
TAF
KBED 231122Z 2312/2412 21008KT P6SM BKN110
     FM231700 21012G20KT P6SM BKN060
     FM240200 21009KT P6SM VCSH BKN025
     FM240500 22008KT 4SM BR VCSH BKN020=

USA.gov is the U.S. government's official web portal to all federal, state and local government web resources and services.